Queen Of Nanaimo — VCNX — position and weather

sailwx.info

Track history (hours):
 
Tides and Currents Weather Stations Pressure Air Temp Water Temp Dewpoint Dewpoint Depression Visibility Wind Speed Wind Dir Waves Ship Positions

Queen Of Nanaimo

Last reported at 2016-May-30 00:33 UTC. Time now 2016-May-30 01:10 UTC.
Position N 48°55' W 123°15'.

Length 130 m; draft 4 m.

Type: Passenger vessel. MMSI: 316001254.

Date/timePositionNaut miles runAvg speedWind from/ knotsBaromVisibWave heightAir tempDewpointWater temp
2016-May-30 00:33N 48°55' W 123°15'6 5.7
2016-May-29 23:34N 48°51' W 123°21'4 1.5
2016-May-29 21:07N 48°51' W 123°27'610.3
2016-May-29 20:32N 48°48' W 123°19'4 3.7
2016-May-29 19:33N 48°51' W 123°21'9 8.9
2016-May-29 18:34N 48°59' W 123°13'4 4.1
2016-May-29 17:33N 49°00' W 123°08'10 9.5
2016-May-29 16:34N 48°53' W 123°17'3 2.7
2016-May-29 15:27N 48°51' W 123°20'3 3.7
2016-May-29 14:32N 48°50' W 123°25'2 1.1
2016-May-29 12:32N 48°51' W 123°27'0 0.0
2016-May-29 10:27N 48°51' W 123°27'5 0.9
2016-May-29 04:33N 48°53' W 123°19'1110.7
2016-May-29 03:33N 49°00' W 123°08'0 0.0
2016-May-29 02:33N 49°00' W 123°08'0 0.0
2016-May-29 01:33N 49°00' W 123°08'1110.7
2016-May-29 00:33N 48°53' W 123°19'5 3.8
2016-May-28 23:17N 48°48' W 123°20'6 2.1
2016-May-28 20:33N 48°53' W 123°18'10 9.6
2016-May-28 19:33N 49°00' W 123°08'9 9.2
2016-May-28 18:33N 48°53' W 123°17'3 2.5
2016-May-28 17:08N 48°51' W 123°21'2 3.3
2016-May-28 16:33N 48°53' W 123°19'1110.7
2016-May-28 15:33N 49°00' W 123°08'4 4.2
2016-May-28 14:34N 48°57' W 123°12'11 1.4
2016-May-28 06:33N 48°51' W 123°27'1 0.5
2016-May-28 05:17N 48°51' W 123°26'5 6.9
2016-May-28 04:32N 48°48' W 123°20'5 4.8
2016-May-28 03:33N 48°53' W 123°19'1110.7
2016-May-28 02:33N 49°00' W 123°08'6 6.4
2016-May-28 01:34N 48°56' W 123°14'5 5.4
2016-May-28 00:33N 48°52' W 123°20'8 7.7
2016-May-27 23:34N 48°58' W 123°14'5 4.6
2016-May-27 22:33N 49°00' W 123°08'1212.1
2016-May-27 21:33N 48°52' W 123°20'4 1.8
2016-May-27 19:21N 48°48' W 123°19'5 5.9
2016-May-27 18:33N 48°53' W 123°18'10 9.8
2016-May-27 17:34N 48°60' W 123°09'1 0.8
2016-May-27 16:34N 49°00' W 123°08'9 9.4
2016-May-27 15:34N 48°53' W 123°17'3 3.0
2016-May-27 14:31N 48°51' W 123°20'3 3.4
2016-May-27 13:33N 48°49' W 123°24'3 0.8
2016-May-27 10:24N 48°51' W 123°27'6 0.9
2016-May-27 04:22N 48°48' W 123°20'4 4.7
2016-May-27 03:34N 48°52' W 123°19'9 9.3
2016-May-27 02:33N 48°59' W 123°10'2 2.1
2016-May-27 01:33N 49°00' W 123°08'1110.7
2016-May-27 00:33N 48°53' W 123°19'3 2.4
2016-May-26 23:24N 48°50' W 123°20'3 3.5
2016-May-26 22:29N 48°50' W 123°25'5 1.5
2016-May-26 19:17N 48°48' W 123°19'4 4.8
2016-May-26 18:29N 48°52' W 123°20'9 8.8
2016-May-26 17:29N 48°58' W 123°12'3 3.6
2016-May-26 16:33N 49°00' W 123°08'1110.6
2016-May-26 15:33N 48°53' W 123°19'2 2.1
2016-May-26 14:27N 48°50' W 123°20'3 0.3
2016-May-26 04:25N 48°48' W 123°19'4 5.1
2016-May-26 03:33N 48°52' W 123°18'9 9.3
2016-May-26 02:33N 48°59' W 123°09'1 1.4
2016-May-26 01:34N 49°00' W 123°08'1110.7
2016-May-26 00:34N 48°53' W 123°19'2 2.0
2016-May-25 23:27N 48°51' W 123°20'3 0.7
2016-May-25 19:13N 48°48' W 123°20'4 5.5
2016-May-25 18:32N 48°52' W 123°19'1010.2
2016-May-25 17:34N 48°59' W 123°10'2 1.8
2016-May-25 16:34N 49°00' W 123°08'1110.3
2016-May-25 15:31N 48°53' W 123°19'2 2.2
2016-May-25 14:25N 48°50' W 123°20'3 3.2
2016-May-25 13:30N 48°50' W 123°25'4 0.4
2016-May-25 04:23N 48°48' W 123°20'5 5.7
2016-May-25 03:33N 48°53' W 123°19'8 8.3
2016-May-25 02:33N 48°58' W 123°10'2 2.0
2016-May-25 01:34N 49°00' W 123°08'1010.3
2016-May-25 00:33N 48°53' W 123°19'3 2.8
2016-May-24 23:23N 48°49' W 123°20'2 0.4
2016-May-24 19:10N 48°48' W 123°20'4 5.9
2016-May-24 18:30N 48°52' W 123°20'1010.9
2016-May-24 17:33N 48°59' W 123°10'2 1.6
2016-May-24 16:33N 49°00' W 123°08'1110.6
2016-May-24 15:33N 48°53' W 123°19'3 2.5
2016-May-24 14:33N 48°50' W 123°20'3 3.1
2016-May-24 13:33N 48°50' W 123°25'1 0.2
2016-May-24 06:32N 48°51' W 123°25'1414.5
2016-May-24 05:33N 49°00' W 123°08'5 4.7
2016-May-24 04:33N 48°56' W 123°12'7 5.2
2016-May-24 03:07N 48°51' W 123°20'611.5
2016-May-24 02:33N 48°56' W 123°15'6 6.1
2016-May-24 01:33N 49°00' W 123°08'9 9.2
2016-May-24 00:34N 48°53' W 123°17'4 2.5
2016-May-23 23:04N 48°51' W 123°21'3 0.8
2016-May-23 19:12N 48°48' W 123°20'4 5.6
2016-May-23 18:32N 48°52' W 123°21'8 8.0
2016-May-23 17:33N 48°57' W 123°12'4 4.4
2016-May-23 16:33N 49°00' W 123°08'1110.7
2016-May-23 15:33N 48°53' W 123°19'2 1.9
2016-May-23 14:27N 48°51' W 123°20'3 3.3
2016-May-23 13:30N 48°50' W 123°25'1 0.1
2016-May-23 06:22N 48°50' W 123°25'1214.5
2016-May-23 05:33N 48°58' W 123°11'3 3.2
2016-May-23 04:33N 49°00' W 123°08'1211.1
2016-May-23 03:27N 48°51' W 123°20'2 1.9
2016-May-23 02:34N 48°52' W 123°18'1110.8
2016-May-23 01:34N 49°00' W 123°08'7 6.8
2016-May-23 00:33N 48°55' W 123°14'6 3.9
2016-May-22 23:05N 48°51' W 123°20'3 1.2
2016-May-22 20:32N 48°48' W 123°19'4 3.9
2016-May-22 19:33N 48°52' W 123°20'7 7.6
2016-May-22 18:33N 48°57' W 123°13'4 4.5
2016-May-22 17:33N 49°00' W 123°08'10 9.7
2016-May-22 16:33N 48°53' W 123°17'3 2.6
2016-May-22 15:28N 48°51' W 123°20'3 3.6
2016-May-22 14:31N 48°50' W 123°25'3 0.3
2016-May-22 05:33N 48°51' W 123°21'4 3.5
2016-May-22 04:33N 48°53' W 123°18'9 9.5
2016-May-22 03:33N 49°00' W 123°08'0 0.0
2016-May-22 02:33N 49°00' W 123°08'1 1.4
2016-May-22 01:33N 48°59' W 123°09'9 9.5
2016-May-22 00:33N 48°52' W 123°18'4 3.2
2016-May-21 23:11N 48°48' W 123°20'5 1.7
2016-May-21 20:32N 48°51' W 123°24'1313.3
2016-May-21 19:33N 48°60' W 123°09'4 3.6
2016-May-21 18:34N 48°57' W 123°12'8 6.4
2016-May-21 17:20N 48°51' W 123°20'2 2.9
2016-May-21 16:33N 48°53' W 123°18'1010.3
2016-May-21 15:33N 49°00' W 123°08'5 4.8
2016-May-21 14:34N 48°56' W 123°12'10 1.2
2016-May-21 05:32N 48°48' W 123°21'5 4.9
2016-May-21 04:33N 48°53' W 123°19'1010.5
2016-May-21 03:33N 49°00' W 123°08'0 0.3
2016-May-21 02:33N 48°60' W 123°08'10 5.0
2016-May-21 00:34N 48°53' W 123°19'10 9.6
2016-May-20 23:33N 48°60' W 123°09'1 1.1
2016-May-20 22:33N 49°00' W 123°08'1211.9
2016-May-20 21:33N 48°52' W 123°20'4 1.8
2016-May-20 19:24N 48°48' W 123°20'5 5.8
2016-May-20 18:34N 48°53' W 123°18'9 9.0
2016-May-20 17:33N 48°59' W 123°09'1 1.4
2016-May-20 16:33N 49°00' W 123°08'9 9.5
2016-May-20 15:33N 48°53' W 123°17'3 2.7
2016-May-20 14:27N 48°51' W 123°20'3 3.7
2016-May-20 13:33N 48°49' W 123°24'3 2.8
2016-May-20 12:33N 48°51' W 123°27'0 0.0
2016-May-20 05:33N 48°51' W 123°27'5 4.6
2016-May-20 04:33N 48°50' W 123°20'3 3.0
2016-May-20 03:34N 48°53' W 123°19'1010.4
2016-May-20 02:33N 49°00' W 123°08'0 0.3
2016-May-20 01:33N 49°00' W 123°08'  
Track history (hours):
 
Tides and Currents Weather Stations Pressure Air Temp Water Temp Dewpoint Dewpoint Depression Visibility Wind Speed Wind Dir Waves Ship Positions

Queen Of Nanaimo

Last reported at 2016-May-30 00:33 UTC. Time now 2016-May-30 01:10 UTC.
Position N 48°55' W 123°15'.

Length 130 m; draft 4 m.

Type: Passenger vessel. MMSI: 316001254.

Date/timePositionNaut miles runAvg speedWind from/ knotsBaromVisibWave heightAir tempDewpointWater temp
2016-May-30 00:33N 48°55' W 123°15'6 5.7
2016-May-29 23:34N 48°51' W 123°21'4 1.5
2016-May-29 21:07N 48°51' W 123°27'610.3
2016-May-29 20:32N 48°48' W 123°19'4 3.7
2016-May-29 19:33N 48°51' W 123°21'9 8.9
2016-May-29 18:34N 48°59' W 123°13'4 4.1
2016-May-29 17:33N 49°00' W 123°08'10 9.5
2016-May-29 16:34N 48°53' W 123°17'3 2.7
2016-May-29 15:27N 48°51' W 123°20'3 3.7
2016-May-29 14:32N 48°50' W 123°25'2 1.1
2016-May-29 12:32N 48°51' W 123°27'0 0.0
2016-May-29 10:27N 48°51' W 123°27'5 0.9
2016-May-29 04:33N 48°53' W 123°19'1110.7
2016-May-29 03:33N 49°00' W 123°08'0 0.0
2016-May-29 02:33N 49°00' W 123°08'0 0.0
2016-May-29 01:33N 49°00' W 123°08'1110.7
2016-May-29 00:33N 48°53' W 123°19'5 3.8
2016-May-28 23:17N 48°48' W 123°20'6 2.1
2016-May-28 20:33N 48°53' W 123°18'10 9.6
2016-May-28 19:33N 49°00' W 123°08'9 9.2
2016-May-28 18:33N 48°53' W 123°17'3 2.5
2016-May-28 17:08N 48°51' W 123°21'2 3.3
2016-May-28 16:33N 48°53' W 123°19'1110.7
2016-May-28 15:33N 49°00' W 123°08'4 4.2
2016-May-28 14:34N 48°57' W 123°12'11 1.4
2016-May-28 06:33N 48°51' W 123°27'1 0.5
2016-May-28 05:17N 48°51' W 123°26'5 6.9
2016-May-28 04:32N 48°48' W 123°20'5 4.8
2016-May-28 03:33N 48°53' W 123°19'1110.7
2016-May-28 02:33N 49°00' W 123°08'6 6.4
2016-May-28 01:34N 48°56' W 123°14'5 5.4
2016-May-28 00:33N 48°52' W 123°20'8 7.7
2016-May-27 23:34N 48°58' W 123°14'5 4.6
2016-May-27 22:33N 49°00' W 123°08'1212.1
2016-May-27 21:33N 48°52' W 123°20'4 1.8
2016-May-27 19:21N 48°48' W 123°19'5 5.9
2016-May-27 18:33N 48°53' W 123°18'10 9.8
2016-May-27 17:34N 48°60' W 123°09'1 0.8
2016-May-27 16:34N 49°00' W 123°08'9 9.4
2016-May-27 15:34N 48°53' W 123°17'3 3.0
2016-May-27 14:31N 48°51' W 123°20'3 3.4
2016-May-27 13:33N 48°49' W 123°24'3 0.8
2016-May-27 10:24N 48°51' W 123°27'6 0.9
2016-May-27 04:22N 48°48' W 123°20'4 4.7
2016-May-27 03:34N 48°52' W 123°19'9 9.3
2016-May-27 02:33N 48°59' W 123°10'2 2.1
2016-May-27 01:33N 49°00' W 123°08'1110.7
2016-May-27 00:33N 48°53' W 123°19'3 2.4
2016-May-26 23:24N 48°50' W 123°20'3 3.5
2016-May-26 22:29N 48°50' W 123°25'5 1.5
2016-May-26 19:17N 48°48' W 123°19'4 4.8
2016-May-26 18:29N 48°52' W 123°20'9 8.8
2016-May-26 17:29N 48°58' W 123°12'3 3.6
2016-May-26 16:33N 49°00' W 123°08'1110.6
2016-May-26 15:33N 48°53' W 123°19'2 2.1
2016-May-26 14:27N 48°50' W 123°20'3 0.3
2016-May-26 04:25N 48°48' W 123°19'4 5.1
2016-May-26 03:33N 48°52' W 123°18'9 9.3
2016-May-26 02:33N 48°59' W 123°09'1 1.4
2016-May-26 01:34N 49°00' W 123°08'1110.7
2016-May-26 00:34N 48°53' W 123°19'2 2.0
2016-May-25 23:27N 48°51' W 123°20'3 0.7
2016-May-25 19:13N 48°48' W 123°20'4 5.5
2016-May-25 18:32N 48°52' W 123°19'1010.2
2016-May-25 17:34N 48°59' W 123°10'2 1.8
2016-May-25 16:34N 49°00' W 123°08'1110.3
2016-May-25 15:31N 48°53' W 123°19'2 2.2
2016-May-25 14:25N 48°50' W 123°20'3 3.2
2016-May-25 13:30N 48°50' W 123°25'4 0.4
2016-May-25 04:23N 48°48' W 123°20'5 5.7
2016-May-25 03:33N 48°53' W 123°19'8 8.3
2016-May-25 02:33N 48°58' W 123°10'2 2.0
2016-May-25 01:34N 49°00' W 123°08'1010.3
2016-May-25 00:33N 48°53' W 123°19'3 2.8
2016-May-24 23:23N 48°49' W 123°20'2 0.4
2016-May-24 19:10N 48°48' W 123°20'4 5.9
2016-May-24 18:30N 48°52' W 123°20'1010.9
2016-May-24 17:33N 48°59' W 123°10'2 1.6
2016-May-24 16:33N 49°00' W 123°08'1110.6
2016-May-24 15:33N 48°53' W 123°19'3 2.5
2016-May-24 14:33N 48°50' W 123°20'3 3.1
2016-May-24 13:33N 48°50' W 123°25'1 0.2
2016-May-24 06:32N 48°51' W 123°25'1414.5
2016-May-24 05:33N 49°00' W 123°08'5 4.7
2016-May-24 04:33N 48°56' W 123°12'7 5.2
2016-May-24 03:07N 48°51' W 123°20'611.5
2016-May-24 02:33N 48°56' W 123°15'6 6.1
2016-May-24 01:33N 49°00' W 123°08'9 9.2
2016-May-24 00:34N 48°53' W 123°17'4 2.5
2016-May-23 23:04N 48°51' W 123°21'3 0.8
2016-May-23 19:12N 48°48' W 123°20'4 5.6
2016-May-23 18:32N 48°52' W 123°21'8 8.0
2016-May-23 17:33N 48°57' W 123°12'4 4.4
2016-May-23 16:33N 49°00' W 123°08'1110.7
2016-May-23 15:33N 48°53' W 123°19'2 1.9
2016-May-23 14:27N 48°51' W 123°20'3 3.3
2016-May-23 13:30N 48°50' W 123°25'1 0.1
2016-May-23 06:22N 48°50' W 123°25'1214.5
2016-May-23 05:33N 48°58' W 123°11'3 3.2
2016-May-23 04:33N 49°00' W 123°08'1211.1
2016-May-23 03:27N 48°51' W 123°20'2 1.9
2016-May-23 02:34N 48°52' W 123°18'1110.8
2016-May-23 01:34N 49°00' W 123°08'7 6.8
2016-May-23 00:33N 48°55' W 123°14'6 3.9
2016-May-22 23:05N 48°51' W 123°20'3 1.2
2016-May-22 20:32N 48°48' W 123°19'4 3.9
2016-May-22 19:33N 48°52' W 123°20'7 7.6
2016-May-22 18:33N 48°57' W 123°13'4 4.5
2016-May-22 17:33N 49°00' W 123°08'10 9.7
2016-May-22 16:33N 48°53' W 123°17'3 2.6
2016-May-22 15:28N 48°51' W 123°20'3 3.6
2016-May-22 14:31N 48°50' W 123°25'3 0.3
2016-May-22 05:33N 48°51' W 123°21'4 3.5
2016-May-22 04:33N 48°53' W 123°18'9 9.5
2016-May-22 03:33N 49°00' W 123°08'0 0.0
2016-May-22 02:33N 49°00' W 123°08'1 1.4
2016-May-22 01:33N 48°59' W 123°09'9 9.5
2016-May-22 00:33N 48°52' W 123°18'4 3.2
2016-May-21 23:11N 48°48' W 123°20'5 1.7
2016-May-21 20:32N 48°51' W 123°24'1313.3
2016-May-21 19:33N 48°60' W 123°09'4 3.6
2016-May-21 18:34N 48°57' W 123°12'8 6.4
2016-May-21 17:20N 48°51' W 123°20'2 2.9
2016-May-21 16:33N 48°53' W 123°18'1010.3
2016-May-21 15:33N 49°00' W 123°08'5 4.8
2016-May-21 14:34N 48°56' W 123°12'10 1.2
2016-May-21 05:32N 48°48' W 123°21'5 4.9
2016-May-21 04:33N 48°53' W 123°19'1010.5
2016-May-21 03:33N 49°00' W 123°08'0 0.3
2016-May-21 02:33N 48°60' W 123°08'10 5.0
2016-May-21 00:34N 48°53' W 123°19'10 9.6
2016-May-20 23:33N 48°60' W 123°09'1 1.1
2016-May-20 22:33N 49°00' W 123°08'1211.9
2016-May-20 21:33N 48°52' W 123°20'4 1.8
2016-May-20 19:24N 48°48' W 123°20'5 5.8
2016-May-20 18:34N 48°53' W 123°18'9 9.0
2016-May-20 17:33N 48°59' W 123°09'1 1.4
2016-May-20 16:33N 49°00' W 123°08'9 9.5
2016-May-20 15:33N 48°53' W 123°17'3 2.7
2016-May-20 14:27N 48°51' W 123°20'3 3.7
2016-May-20 13:33N 48°49' W 123°24'3 2.8
2016-May-20 12:33N 48°51' W 123°27'0 0.0
2016-May-20 05:33N 48°51' W 123°27'5 4.6
2016-May-20 04:33N 48°50' W 123°20'3 3.0
2016-May-20 03:34N 48°53' W 123°19'1010.4
2016-May-20 02:33N 49°00' W 123°08'0 0.3
2016-May-20 01:33N 49°00' W 123°08'  

Dump ship's entire track history